sensor_id;sensor_type;location;lat;lon;timestamp;temperature;humidity
72114;SHT31;59989;46.220;19.888;2024-03-17T00:02:01;9.47;95.34
72114;SHT31;59989;46.220;19.888;2024-03-17T00:05:02;9.46;95.45
72114;SHT31;59989;46.220;19.888;2024-03-17T00:08:04;9.44;95.41
72114;SHT31;59989;46.220;19.888;2024-03-17T00:11:06;9.50;95.48
72114;SHT31;59989;46.220;19.888;2024-03-17T00:14:07;9.55;95.40
72114;SHT31;59989;46.220;19.888;2024-03-17T00:17:09;9.58;95.37
72114;SHT31;59989;46.220;19.888;2024-03-17T00:20:10;9.69;95.33
72114;SHT31;59989;46.220;19.888;2024-03-17T00:23:20;9.75;95.01
72114;SHT31;59989;46.220;19.888;2024-03-17T00:26:21;9.90;94.60
72114;SHT31;59989;46.220;19.888;2024-03-17T00:29:23;10.02;94.37
72114;SHT31;59989;46.220;19.888;2024-03-17T00:32:24;10.12;93.91
72114;SHT31;59989;46.220;19.888;2024-03-17T00:35:26;10.22;93.67
72114;SHT31;59989;46.220;19.888;2024-03-17T00:38:28;10.28;93.38
72114;SHT31;59989;46.220;19.888;2024-03-17T00:41:30;10.35;93.30
72114;SHT31;59989;46.220;19.888;2024-03-17T00:44:32;10.43;92.97
72114;SHT31;59989;46.220;19.888;2024-03-17T00:47:33;10.52;92.62
72114;SHT31;59989;46.220;19.888;2024-03-17T00:50:35;10.61;92.25
72114;SHT31;59989;46.220;19.888;2024-03-17T00:53:36;10.67;92.21
72114;SHT31;59989;46.220;19.888;2024-03-17T00:56:38;10.69;91.94
72114;SHT31;59989;46.220;19.888;2024-03-17T00:59:39;10.74;91.77
72114;SHT31;59989;46.220;19.888;2024-03-17T01:02:41;10.73;91.83
72114;SHT31;59989;46.220;19.888;2024-03-17T01:05:43;10.70;91.93
72114;SHT31;59989;46.220;19.888;2024-03-17T01:08:45;10.66;92.14
72114;SHT31;59989;46.220;19.888;2024-03-17T01:11:47;10.70;91.97
72114;SHT31;59989;46.220;19.888;2024-03-17T01:14:49;10.66;91.96
72114;SHT31;59989;46.220;19.888;2024-03-17T01:17:50;10.60;92.14
72114;SHT31;59989;46.220;19.888;2024-03-17T01:20:52;10.57;92.24
72114;SHT31;59989;46.220;19.888;2024-03-17T01:23:53;10.55;92.19
72114;SHT31;59989;46.220;19.888;2024-03-17T01:26:55;10.50;92.22
72114;SHT31;59989;46.220;19.888;2024-03-17T01:29:56;10.49;92.27
72114;SHT31;59989;46.220;19.888;2024-03-17T01:32:58;10.43;92.26
72114;SHT31;59989;46.220;19.888;2024-03-17T01:36:01;10.43;92.10
72114;SHT31;59989;46.220;19.888;2024-03-17T01:39:02;10.35;92.19
72114;SHT31;59989;46.220;19.888;2024-03-17T01:42:04;10.31;92.25
72114;SHT31;59989;46.220;19.888;2024-03-17T01:45:27;10.32;91.84
72114;SHT31;59989;46.220;19.888;2024-03-17T01:48:29;10.31;91.85
72114;SHT31;59989;46.220;19.888;2024-03-17T01:51:30;10.26;91.91
72114;SHT31;59989;46.220;19.888;2024-03-17T01:54:32;10.33;91.28
72114;SHT31;59989;46.220;19.888;2024-03-17T01:57:34;10.29;91.37
72114;SHT31;59989;46.220;19.888;2024-03-17T02:00:35;10.26;91.49
72114;SHT31;59989;46.220;19.888;2024-03-17T02:03:37;10.26;91.19
72114;SHT31;59989;46.220;19.888;2024-03-17T02:06:39;10.29;90.93
72114;SHT31;59989;46.220;19.888;2024-03-17T02:09:41;10.35;90.28
72114;SHT31;59989;46.220;19.888;2024-03-17T02:12:44;10.32;90.38
72114;SHT31;59989;46.220;19.888;2024-03-17T02:15:46;10.39;89.41
72114;SHT31;59989;46.220;19.888;2024-03-17T02:18:47;10.43;89.30
72114;SHT31;59989;46.220;19.888;2024-03-17T02:21:48;10.45;89.01
72114;SHT31;59989;46.220;19.888;2024-03-17T02:24:50;10.39;89.35
72114;SHT31;59989;46.220;19.888;2024-03-17T02:27:52;10.36;89.58
72114;SHT31;59989;46.220;19.888;2024-03-17T02:30:53;10.49;88.32
72114;SHT31;59989;46.220;19.888;2024-03-17T02:33:55;10.60;87.33
72114;SHT31;59989;46.220;19.888;2024-03-17T02:36:56;10.50;88.42
72114;SHT31;59989;46.220;19.888;2024-03-17T02:39:57;10.60;87.17
72114;SHT31;59989;46.220;19.888;2024-03-17T02:42:59;10.57;87.81
72114;SHT31;59989;46.220;19.888;2024-03-17T02:46:01;10.61;87.03
72114;SHT31;59989;46.220;19.888;2024-03-17T02:49:05;10.57;87.56
72114;SHT31;59989;46.220;19.888;2024-03-17T02:52:10;10.50;88.04
72114;SHT31;59989;46.220;19.888;2024-03-17T02:55:11;10.48;88.01
72114;SHT31;59989;46.220;19.888;2024-03-17T02:58:13;10.46;87.75
72114;SHT31;59989;46.220;19.888;2024-03-17T03:01:15;10.50;87.74
72114;SHT31;59989;46.220;19.888;2024-03-17T03:04:16;10.45;88.00
72114;SHT31;59989;46.220;19.888;2024-03-17T03:07:18;10.52;87.27
72114;SHT31;59989;46.220;19.888;2024-03-17T03:10:20;10.50;86.97
72114;SHT31;59989;46.220;19.888;2024-03-17T03:13:22;10.53;86.58
72114;SHT31;59989;46.220;19.888;2024-03-17T03:16:23;10.53;86.60
72114;SHT31;59989;46.220;19.888;2024-03-17T03:19:29;10.56;86.87
72114;SHT31;59989;46.220;19.888;2024-03-17T03:22:31;10.67;85.87
72114;SHT31;59989;46.220;19.888;2024-03-17T03:25:33;10.57;86.65
72114;SHT31;59989;46.220;19.888;2024-03-17T03:28:36;10.66;86.25
72114;SHT31;59989;46.220;19.888;2024-03-17T03:31:37;10.57;86.95
72114;SHT31;59989;46.220;19.888;2024-03-17T03:34:40;10.59;86.41
72114;SHT31;59989;46.220;19.888;2024-03-17T03:37:42;10.67;85.86
72114;SHT31;59989;46.220;19.888;2024-03-17T03:40:43;10.59;86.63
72114;SHT31;59989;46.220;19.888;2024-03-17T03:43:45;10.59;86.43
72114;SHT31;59989;46.220;19.888;2024-03-17T03:46:49;10.53;86.63
72114;SHT31;59989;46.220;19.888;2024-03-17T03:49:51;10.46;86.90
72114;SHT31;59989;46.220;19.888;2024-03-17T03:52:52;10.50;86.63
72114;SHT31;59989;46.220;19.888;2024-03-17T03:55:53;10.52;86.73
72114;SHT31;59989;46.220;19.888;2024-03-17T03:58:55;10.48;86.94
72114;SHT31;59989;46.220;19.888;2024-03-17T04:01:56;10.50;86.57
72114;SHT31;59989;46.220;19.888;2024-03-17T04:04:58;10.45;87.18
72114;SHT31;59989;46.220;19.888;2024-03-17T04:08:00;10.32;87.92
72114;SHT31;59989;46.220;19.888;2024-03-17T04:11:02;10.36;87.33
72114;SHT31;59989;46.220;19.888;2024-03-17T04:14:03;10.29;87.73
72114;SHT31;59989;46.220;19.888;2024-03-17T04:17:06;10.28;87.70
72114;SHT31;59989;46.220;19.888;2024-03-17T04:20:08;10.21;88.33
72114;SHT31;59989;46.220;19.888;2024-03-17T04:23:11;10.22;88.11
72114;SHT31;59989;46.220;19.888;2024-03-17T04:26:12;10.18;88.00
72114;SHT31;59989;46.220;19.888;2024-03-17T04:29:15;10.11;88.73
72114;SHT31;59989;46.220;19.888;2024-03-17T04:32:17;10.12;88.21
72114;SHT31;59989;46.220;19.888;2024-03-17T04:35:18;10.05;88.54
72114;SHT31;59989;46.220;19.888;2024-03-17T04:38:20;10.03;88.63
72114;SHT31;59989;46.220;19.888;2024-03-17T04:41:21;10.06;88.50
72114;SHT31;59989;46.220;19.888;2024-03-17T04:44:23;10.12;88.17
72114;SHT31;59989;46.220;19.888;2024-03-17T04:47:24;10.05;88.63
72114;SHT31;59989;46.220;19.888;2024-03-17T04:50:25;10.03;88.62
72114;SHT31;59989;46.220;19.888;2024-03-17T04:53:28;10.01;88.76
72114;SHT31;59989;46.220;19.888;2024-03-17T04:56:30;10.05;88.53
72114;SHT31;59989;46.220;19.888;2024-03-17T04:59:34;10.06;88.42
72114;SHT31;59989;46.220;19.888;2024-03-17T05:02:37;9.97;88.98
72114;SHT31;59989;46.220;19.888;2024-03-17T05:05:39;10.02;88.31
72114;SHT31;59989;46.220;19.888;2024-03-17T05:08:40;9.99;88.45
72114;SHT31;59989;46.220;19.888;2024-03-17T05:11:42;10.01;88.29
72114;SHT31;59989;46.220;19.888;2024-03-17T05:14:43;9.92;88.73
72114;SHT31;59989;46.220;19.888;2024-03-17T05:17:44;9.77;89.25
72114;SHT31;59989;46.220;19.888;2024-03-17T05:20:46;9.77;89.16
72114;SHT31;59989;46.220;19.888;2024-03-17T05:23:50;9.73;89.19
72114;SHT31;59989;46.220;19.888;2024-03-17T05:26:52;9.74;89.59
72114;SHT31;59989;46.220;19.888;2024-03-17T05:29:54;9.75;89.20
72114;SHT31;59989;46.220;19.888;2024-03-17T05:32:55;9.84;88.78
72114;SHT31;59989;46.220;19.888;2024-03-17T05:35:58;9.90;88.72
72114;SHT31;59989;46.220;19.888;2024-03-17T05:39:00;9.91;88.99
72114;SHT31;59989;46.220;19.888;2024-03-17T05:42:02;9.95;88.73
72114;SHT31;59989;46.220;19.888;2024-03-17T05:45:05;10.05;88.55
72114;SHT31;59989;46.220;19.888;2024-03-17T05:48:06;10.08;88.55
72114;SHT31;59989;46.220;19.888;2024-03-17T05:51:10;10.21;87.93
72114;SHT31;59989;46.220;19.888;2024-03-17T05:54:12;10.35;87.38
72114;SHT31;59989;46.220;19.888;2024-03-17T05:57:13;10.45;86.86
72114;SHT31;59989;46.220;19.888;2024-03-17T06:00:17;10.52;85.74
72114;SHT31;59989;46.220;19.888;2024-03-17T06:03:19;10.46;86.02
72114;SHT31;59989;46.220;19.888;2024-03-17T06:06:20;10.38;85.69
72114;SHT31;59989;46.220;19.888;2024-03-17T06:09:23;10.29;86.21
72114;SHT31;59989;46.220;19.888;2024-03-17T06:12:25;10.23;86.43
72114;SHT31;59989;46.220;19.888;2024-03-17T06:15:27;10.19;86.00
72114;SHT31;59989;46.220;19.888;2024-03-17T06:18:29;10.22;85.57
72114;SHT31;59989;46.220;19.888;2024-03-17T06:21:30;10.25;85.79
72114;SHT31;59989;46.220;19.888;2024-03-17T06:24:32;10.29;84.37
72114;SHT31;59989;46.220;19.888;2024-03-17T06:27:33;10.33;85.32
72114;SHT31;59989;46.220;19.888;2024-03-17T06:30:35;10.40;83.32
72114;SHT31;59989;46.220;19.888;2024-03-17T06:33:38;10.42;83.54
72114;SHT31;59989;46.220;19.888;2024-03-17T06:36:39;10.48;82.76
72114;SHT31;59989;46.220;19.888;2024-03-17T06:39:41;10.55;81.16
72114;SHT31;59989;46.220;19.888;2024-03-17T06:42:42;10.67;80.36
72114;SHT31;59989;46.220;19.888;2024-03-17T06:45:56;10.69;80.62
72114;SHT31;59989;46.220;19.888;2024-03-17T06:48:58;10.74;80.49
72114;SHT31;59989;46.220;19.888;2024-03-17T06:52:00;10.77;77.64
72114;SHT31;59989;46.220;19.888;2024-03-17T06:55:02;10.84;77.98
72114;SHT31;59989;46.220;19.888;2024-03-17T06:58:04;10.85;77.87
72114;SHT31;59989;46.220;19.888;2024-03-17T07:01:06;10.96;75.81
72114;SHT31;59989;46.220;19.888;2024-03-17T07:04:07;11.01;75.07
72114;SHT31;59989;46.220;19.888;2024-03-17T07:07:09;11.14;76.49
72114;SHT31;59989;46.220;19.888;2024-03-17T07:10:11;11.12;73.65
72114;SHT31;59989;46.220;19.888;2024-03-17T07:13:13;11.08;74.29
72114;SHT31;59989;46.220;19.888;2024-03-17T07:16:14;11.21;73.17
72114;SHT31;59989;46.220;19.888;2024-03-17T07:19:16;11.32;72.42
72114;SHT31;59989;46.220;19.888;2024-03-17T07:22:17;11.38;70.62
72114;SHT31;59989;46.220;19.888;2024-03-17T07:25:19;11.59;71.71
72114;SHT31;59989;46.220;19.888;2024-03-17T07:28:21;11.63;69.86
72114;SHT31;59989;46.220;19.888;2024-03-17T07:31:23;11.61;68.76
72114;SHT31;59989;46.220;19.888;2024-03-17T07:34:24;11.89;69.58
72114;SHT31;59989;46.220;19.888;2024-03-17T07:37:26;11.97;69.43
72114;SHT31;59989;46.220;19.888;2024-03-17T07:40:27;12.08;65.56
72114;SHT31;59989;46.220;19.888;2024-03-17T07:43:31;12.21;64.96
72114;SHT31;59989;46.220;19.888;2024-03-17T07:46:32;12.24;63.42
72114;SHT31;59989;46.220;19.888;2024-03-17T07:49:37;12.51;64.03
72114;SHT31;59989;46.220;19.888;2024-03-17T07:52:39;12.61;63.93
72114;SHT31;59989;46.220;19.888;2024-03-17T07:55:41;12.49;61.70
72114;SHT31;59989;46.220;19.888;2024-03-17T07:58:43;12.59;61.12
72114;SHT31;59989;46.220;19.888;2024-03-17T08:01:45;12.85;62.63
72114;SHT31;59989;46.220;19.888;2024-03-17T08:04:46;12.58;58.83
72114;SHT31;59989;46.220;19.888;2024-03-17T08:07:48;12.58;59.00
72114;SHT31;59989;46.220;19.888;2024-03-17T08:10:50;12.79;58.99
72114;SHT31;59989;46.220;19.888;2024-03-17T08:13:52;12.69;57.68
72114;SHT31;59989;46.220;19.888;2024-03-17T08:16:55;12.78;57.94
72114;SHT31;59989;46.220;19.888;2024-03-17T08:19:57;12.97;58.31
72114;SHT31;59989;46.220;19.888;2024-03-17T08:22:59;12.93;57.58
72114;SHT31;59989;46.220;19.888;2024-03-17T08:26:00;13.33;57.96
72114;SHT31;59989;46.220;19.888;2024-03-17T08:29:02;13.31;58.26
72114;SHT31;59989;46.220;19.888;2024-03-17T08:32:04;13.26;57.14
72114;SHT31;59989;46.220;19.888;2024-03-17T08:35:05;13.14;56.14
72114;SHT31;59989;46.220;19.888;2024-03-17T08:38:07;13.28;57.17
72114;SHT31;59989;46.220;19.888;2024-03-17T08:41:09;13.21;55.84
72114;SHT31;59989;46.220;19.888;2024-03-17T08:44:11;13.44;58.22
72114;SHT31;59989;46.220;19.888;2024-03-17T08:47:14;13.75;58.18
72114;SHT31;59989;46.220;19.888;2024-03-17T08:50:15;13.55;55.96
72114;SHT31;59989;46.220;19.888;2024-03-17T08:53:17;13.44;56.69
72114;SHT31;59989;46.220;19.888;2024-03-17T08:56:18;13.26;55.14
72114;SHT31;59989;46.220;19.888;2024-03-17T08:59:22;13.26;54.18
72114;SHT31;59989;46.220;19.888;2024-03-17T09:02:24;13.33;55.56
72114;SHT31;59989;46.220;19.888;2024-03-17T09:05:25;13.14;53.61
72114;SHT31;59989;46.220;19.888;2024-03-17T09:08:27;13.23;54.49
72114;SHT31;59989;46.220;19.888;2024-03-17T09:11:29;13.17;54.46
72114;SHT31;59989;46.220;19.888;2024-03-17T09:14:30;13.68;55.19
72114;SHT31;59989;46.220;19.888;2024-03-17T09:17:33;13.37;52.22
72114;SHT31;59989;46.220;19.888;2024-03-17T09:20:34;13.60;53.38
72114;SHT31;59989;46.220;19.888;2024-03-17T09:23:36;13.48;52.86
72114;SHT31;59989;46.220;19.888;2024-03-17T09:26:40;13.83;54.12
72114;SHT31;59989;46.220;19.888;2024-03-17T09:29:42;13.92;53.90
72114;SHT31;59989;46.220;19.888;2024-03-17T09:32:43;13.85;51.75
72114;SHT31;59989;46.220;19.888;2024-03-17T09:35:59;13.83;51.50
72114;SHT31;59989;46.220;19.888;2024-03-17T09:39:01;14.06;50.33
72114;SHT31;59989;46.220;19.888;2024-03-17T09:42:05;14.32;51.31
72114;SHT31;59989;46.220;19.888;2024-03-17T09:45:10;13.89;49.44
72114;SHT31;59989;46.220;19.888;2024-03-17T09:48:16;13.77;50.59
72114;SHT31;59989;46.220;19.888;2024-03-17T09:51:21;13.89;51.46
72114;SHT31;59989;46.220;19.888;2024-03-17T09:54:22;13.67;52.53
72114;SHT31;59989;46.220;19.888;2024-03-17T09:57:25;14.18;52.12
72114;SHT31;59989;46.220;19.888;2024-03-17T10:00:26;14.39;51.71
72114;SHT31;59989;46.220;19.888;2024-03-17T10:06:50;14.50;48.58
72114;SHT31;59989;46.220;19.888;2024-03-17T10:10:10;14.30;49.67
72114;SHT31;59989;46.220;19.888;2024-03-17T10:13:13;14.70;49.87
72114;SHT31;59989;46.220;19.888;2024-03-17T10:16:23;14.13;48.25
72114;SHT31;59989;46.220;19.888;2024-03-17T10:19:25;14.47;49.67
72114;SHT31;59989;46.220;19.888;2024-03-17T10:22:28;14.83;48.68
72114;SHT31;59989;46.220;19.888;2024-03-17T10:25:38;14.85;49.39
72114;SHT31;59989;46.220;19.888;2024-03-17T10:28:43;14.50;49.30
72114;SHT31;59989;46.220;19.888;2024-03-17T10:31:45;14.95;47.74
72114;SHT31;59989;46.220;19.888;2024-03-17T10:34:47;15.56;47.16
72114;SHT31;59989;46.220;19.888;2024-03-17T10:38:14;14.99;43.91
72114;SHT31;59989;46.220;19.888;2024-03-17T10:41:16;14.88;45.10
72114;SHT31;59989;46.220;19.888;2024-03-17T10:44:17;15.11;44.07
72114;SHT31;59989;46.220;19.888;2024-03-17T10:47:26;15.47;42.83
72114;SHT31;59989;46.220;19.888;2024-03-17T10:50:31;15.63;42.32
72114;SHT31;59989;46.220;19.888;2024-03-17T10:53:33;16.22;43.26
72114;SHT31;59989;46.220;19.888;2024-03-17T10:56:34;16.05;41.52
72114;SHT31;59989;46.220;19.888;2024-03-17T10:59:40;15.52;41.13
72114;SHT31;59989;46.220;19.888;2024-03-17T11:02:43;15.21;42.22
72114;SHT31;59989;46.220;19.888;2024-03-17T11:05:47;15.42;41.41
72114;SHT31;59989;46.220;19.888;2024-03-17T11:08:50;15.24;41.60
72114;SHT31;59989;46.220;19.888;2024-03-17T11:11:52;15.93;41.75
72114;SHT31;59989;46.220;19.888;2024-03-17T11:21:24;15.56;42.34
72114;SHT31;59989;46.220;19.888;2024-03-17T11:24:27;15.98;41.11
72114;SHT31;59989;46.220;19.888;2024-03-17T11:27:41;15.77;38.87
72114;SHT31;59989;46.220;19.888;2024-03-17T11:30:48;15.73;36.38
72114;SHT31;59989;46.220;19.888;2024-03-17T11:33:59;16.08;37.79
72114;SHT31;59989;46.220;19.888;2024-03-17T11:37:04;16.05;38.76
72114;SHT31;59989;46.220;19.888;2024-03-17T11:40:25;15.86;40.48
72114;SHT31;59989;46.220;19.888;2024-03-17T11:43:27;16.97;40.07
72114;SHT31;59989;46.220;19.888;2024-03-17T11:46:29;16.44;40.14
72114;SHT31;59989;46.220;19.888;2024-03-17T11:49:39;17.03;39.16
72114;SHT31;59989;46.220;19.888;2024-03-17T11:52:40;17.09;35.71
72114;SHT31;59989;46.220;19.888;2024-03-17T11:55:49;17.17;39.13
72114;SHT31;59989;46.220;19.888;2024-03-17T11:59:06;16.72;41.52
72114;SHT31;59989;46.220;19.888;2024-03-17T12:02:16;16.97;39.36
72114;SHT31;59989;46.220;19.888;2024-03-17T12:05:19;17.21;38.46
72114;SHT31;59989;46.220;19.888;2024-03-17T12:08:22;17.97;39.70
72114;SHT31;59989;46.220;19.888;2024-03-17T12:11:24;17.51;36.88
72114;SHT31;59989;46.220;19.888;2024-03-17T12:14:26;17.11;37.88
72114;SHT31;59989;46.220;19.888;2024-03-17T12:17:28;16.44;38.09
72114;SHT31;59989;46.220;19.888;2024-03-17T12:20:30;16.62;40.13
72114;SHT31;59989;46.220;19.888;2024-03-17T12:23:32;16.73;40.93
72114;SHT31;59989;46.220;19.888;2024-03-17T12:26:33;16.93;37.88
72114;SHT31;59989;46.220;19.888;2024-03-17T12:29:37;16.14;38.54
72114;SHT31;59989;46.220;19.888;2024-03-17T12:32:41;16.61;36.15
72114;SHT31;59989;46.220;19.888;2024-03-17T12:35:43;16.80;36.87
72114;SHT31;59989;46.220;19.888;2024-03-17T12:38:46;16.94;37.71
72114;SHT31;59989;46.220;19.888;2024-03-17T12:42:10;18.29;37.25
72114;SHT31;59989;46.220;19.888;2024-03-17T12:45:12;18.41;36.96
72114;SHT31;59989;46.220;19.888;2024-03-17T12:48:14;17.64;36.81
72114;SHT31;59989;46.220;19.888;2024-03-17T12:51:15;16.93;35.72
72114;SHT31;59989;46.220;19.888;2024-03-17T12:54:23;17.39;34.69
72114;SHT31;59989;46.220;19.888;2024-03-17T12:57:25;18.37;36.21
72114;SHT31;59989;46.220;19.888;2024-03-17T13:01:00;17.86;35.45
72114;SHT31;59989;46.220;19.888;2024-03-17T13:04:05;18.40;36.21
72114;SHT31;59989;46.220;19.888;2024-03-17T13:07:12;18.18;37.20
72114;SHT31;59989;46.220;19.888;2024-03-17T13:10:18;18.81;36.28
72114;SHT31;59989;46.220;19.888;2024-03-17T13:13:20;19.11;37.70
72114;SHT31;59989;46.220;19.888;2024-03-17T13:16:21;18.71;37.83
72114;SHT31;59989;46.220;19.888;2024-03-17T13:19:23;19.20;38.00
72114;SHT31;59989;46.220;19.888;2024-03-17T13:22:25;18.55;38.82
72114;SHT31;59989;46.220;19.888;2024-03-17T13:25:30;18.29;39.16
72114;SHT31;59989;46.220;19.888;2024-03-17T13:28:39;17.86;39.17
72114;SHT31;59989;46.220;19.888;2024-03-17T13:31:40;18.37;39.42
72114;SHT31;59989;46.220;19.888;2024-03-17T13:34:42;19.26;37.14
72114;SHT31;59989;46.220;19.888;2024-03-17T13:37:49;18.27;37.24
72114;SHT31;59989;46.220;19.888;2024-03-17T13:40:51;19.27;36.48
72114;SHT31;59989;46.220;19.888;2024-03-17T13:43:52;18.51;37.71
72114;SHT31;59989;46.220;19.888;2024-03-17T13:46:59;17.83;38.06
72114;SHT31;59989;46.220;19.888;2024-03-17T13:50:03;18.33;38.73
72114;SHT31;59989;46.220;19.888;2024-03-17T13:53:07;17.89;39.37
72114;SHT31;59989;46.220;19.888;2024-03-17T13:56:10;17.86;39.94
72114;SHT31;59989;46.220;19.888;2024-03-17T13:59:11;18.54;39.83
72114;SHT31;59989;46.220;19.888;2024-03-17T14:02:13;17.47;40.96
72114;SHT31;59989;46.220;19.888;2024-03-17T14:05:16;16.65;40.46
72114;SHT31;59989;46.220;19.888;2024-03-17T14:08:18;16.49;41.14
72114;SHT31;59989;46.220;19.888;2024-03-17T14:11:20;16.52;41.16
72114;SHT31;59989;46.220;19.888;2024-03-17T14:14:22;16.58;40.30
72114;SHT31;59989;46.220;19.888;2024-03-17T14:17:24;15.66;43.24
72114;SHT31;59989;46.220;19.888;2024-03-17T14:20:26;15.79;43.63
72114;SHT31;59989;46.220;19.888;2024-03-17T14:23:27;15.89;42.95
72114;SHT31;59989;46.220;19.888;2024-03-17T14:26:31;16.93;42.42
72114;SHT31;59989;46.220;19.888;2024-03-17T14:29:32;17.52;40.22
72114;SHT31;59989;46.220;19.888;2024-03-17T14:32:34;16.45;40.96
72114;SHT31;59989;46.220;19.888;2024-03-17T14:35:36;16.32;40.14
72114;SHT31;59989;46.220;19.888;2024-03-17T14:38:39;18.09;38.36
72114;SHT31;59989;46.220;19.888;2024-03-17T14:41:40;17.21;37.58
72114;SHT31;59989;46.220;19.888;2024-03-17T14:44:42;16.10;39.51
72114;SHT31;59989;46.220;19.888;2024-03-17T14:47:44;16.75;38.28
72114;SHT31;59989;46.220;19.888;2024-03-17T14:50:46;15.73;38.24
72114;SHT31;59989;46.220;19.888;2024-03-17T14:53:48;16.14;39.95
72114;SHT31;59989;46.220;19.888;2024-03-17T14:56:52;15.77;40.30
72114;SHT31;59989;46.220;19.888;2024-03-17T14:59:56;15.38;41.20
72114;SHT31;59989;46.220;19.888;2024-03-17T15:02:58;16.10;40.09
72114;SHT31;59989;46.220;19.888;2024-03-17T15:06:00;16.07;41.55
72114;SHT31;59989;46.220;19.888;2024-03-17T15:09:02;15.73;42.57
72114;SHT31;59989;46.220;19.888;2024-03-17T15:12:04;15.25;43.28
72114;SHT31;59989;46.220;19.888;2024-03-17T15:15:08;14.77;43.05
72114;SHT31;59989;46.220;19.888;2024-03-17T15:18:11;14.81;43.37
72114;SHT31;59989;46.220;19.888;2024-03-17T15:21:13;14.43;43.04
72114;SHT31;59989;46.220;19.888;2024-03-17T15:24:15;14.29;43.43
72114;SHT31;59989;46.220;19.888;2024-03-17T15:27:16;14.19;43.94
72114;SHT31;59989;46.220;19.888;2024-03-17T15:30:18;14.09;43.92
72114;SHT31;59989;46.220;19.888;2024-03-17T15:33:20;14.02;43.20
72114;SHT31;59989;46.220;19.888;2024-03-17T15:36:22;13.92;42.81
72114;SHT31;59989;46.220;19.888;2024-03-17T15:39:23;13.92;42.55
72114;SHT31;59989;46.220;19.888;2024-03-17T15:42:25;13.78;43.00
72114;SHT31;59989;46.220;19.888;2024-03-17T15:45:27;13.72;43.34
72114;SHT31;59989;46.220;19.888;2024-03-17T15:48:29;13.68;43.11
72114;SHT31;59989;46.220;19.888;2024-03-17T15:51:31;13.57;42.23
72114;SHT31;59989;46.220;19.888;2024-03-17T15:54:33;13.54;42.43
72114;SHT31;59989;46.220;19.888;2024-03-17T15:57:36;13.53;42.78
72114;SHT31;59989;46.220;19.888;2024-03-17T16:00:38;13.50;43.04
72114;SHT31;59989;46.220;19.888;2024-03-17T16:03:40;13.43;43.58
72114;SHT31;59989;46.220;19.888;2024-03-17T16:06:42;13.30;44.36
72114;SHT31;59989;46.220;19.888;2024-03-17T16:09:43;13.16;44.14
72114;SHT31;59989;46.220;19.888;2024-03-17T16:12:45;13.10;44.17
72114;SHT31;59989;46.220;19.888;2024-03-17T16:15:47;13.02;44.41
72114;SHT31;59989;46.220;19.888;2024-03-17T16:18:49;12.91;45.24
72114;SHT31;59989;46.220;19.888;2024-03-17T16:21:50;12.72;44.42
72114;SHT31;59989;46.220;19.888;2024-03-17T16:24:52;12.61;46.08
72114;SHT31;59989;46.220;19.888;2024-03-17T16:27:54;12.46;46.28
72114;SHT31;59989;46.220;19.888;2024-03-17T16:30:56;12.35;46.42
72114;SHT31;59989;46.220;19.888;2024-03-17T16:33:58;12.28;45.60
72114;SHT31;59989;46.220;19.888;2024-03-17T16:37:02;12.14;46.32
72114;SHT31;59989;46.220;19.888;2024-03-17T16:40:05;12.06;46.84
72114;SHT31;59989;46.220;19.888;2024-03-17T16:43:09;11.87;47.61
72114;SHT31;59989;46.220;19.888;2024-03-17T16:49:25;11.55;49.57
72114;SHT31;59989;46.220;19.888;2024-03-17T16:52:27;11.45;49.28
72114;SHT31;59989;46.220;19.888;2024-03-17T16:55:30;11.39;49.68
72114;SHT31;59989;46.220;19.888;2024-03-17T16:58:32;11.31;50.50
72114;SHT31;59989;46.220;19.888;2024-03-17T17:01:34;11.19;50.98
72114;SHT31;59989;46.220;19.888;2024-03-17T17:04:39;11.07;51.24
72114;SHT31;59989;46.220;19.888;2024-03-17T17:07:42;11.06;51.47
72114;SHT31;59989;46.220;19.888;2024-03-17T17:10:43;10.93;51.83
72114;SHT31;59989;46.220;19.888;2024-03-17T17:13:45;10.83;52.08
72114;SHT31;59989;46.220;19.888;2024-03-17T17:16:47;10.74;52.06
72114;SHT31;59989;46.220;19.888;2024-03-17T17:19:49;10.63;53.30
72114;SHT31;59989;46.220;19.888;2024-03-17T17:22:53;10.40;54.50
72114;SHT31;59989;46.220;19.888;2024-03-17T17:25:55;10.38;53.79
72114;SHT31;59989;46.220;19.888;2024-03-17T17:29:01;10.40;54.26
72114;SHT31;59989;46.220;19.888;2024-03-17T17:32:07;10.22;55.18
72114;SHT31;59989;46.220;19.888;2024-03-17T17:35:08;10.13;55.32
72114;SHT31;59989;46.220;19.888;2024-03-17T17:38:10;10.18;55.58
72114;SHT31;59989;46.220;19.888;2024-03-17T17:41:12;10.06;56.11
72114;SHT31;59989;46.220;19.888;2024-03-17T17:44:16;9.94;56.40
72114;SHT31;59989;46.220;19.888;2024-03-17T17:47:17;9.81;56.81
72114;SHT31;59989;46.220;19.888;2024-03-17T17:50:19;9.80;56.58
72114;SHT31;59989;46.220;19.888;2024-03-17T17:53:21;9.73;57.24
72114;SHT31;59989;46.220;19.888;2024-03-17T17:56:22;9.71;57.87
72114;SHT31;59989;46.220;19.888;2024-03-17T17:59:25;9.64;58.17
72114;SHT31;59989;46.220;19.888;2024-03-17T18:02:27;9.51;58.52
72114;SHT31;59989;46.220;19.888;2024-03-17T18:05:31;9.42;58.81
72114;SHT31;59989;46.220;19.888;2024-03-17T18:08:33;9.29;59.70
72114;SHT31;59989;46.220;19.888;2024-03-17T18:11:34;9.20;59.34
72114;SHT31;59989;46.220;19.888;2024-03-17T18:14:37;9.11;59.86
72114;SHT31;59989;46.220;19.888;2024-03-17T18:17:38;9.12;59.38
72114;SHT31;59989;46.220;19.888;2024-03-17T18:20:40;9.18;60.12
72114;SHT31;59989;46.220;19.888;2024-03-17T18:23:42;9.16;59.87
72114;SHT31;59989;46.220;19.888;2024-03-17T18:26:44;9.08;60.41
72114;SHT31;59989;46.220;19.888;2024-03-17T18:29:46;8.98;60.47
72114;SHT31;59989;46.220;19.888;2024-03-17T18:32:49;8.92;61.21
72114;SHT31;59989;46.220;19.888;2024-03-17T18:35:52;8.82;61.15
72114;SHT31;59989;46.220;19.888;2024-03-17T18:38:54;8.65;61.92
72114;SHT31;59989;46.220;19.888;2024-03-17T18:41:56;8.46;62.17
72114;SHT31;59989;46.220;19.888;2024-03-17T18:44:57;8.27;63.31
72114;SHT31;59989;46.220;19.888;2024-03-17T18:47:59;8.12;63.08
72114;SHT31;59989;46.220;19.888;2024-03-17T18:51:01;8.03;63.34
72114;SHT31;59989;46.220;19.888;2024-03-17T18:54:03;7.92;64.84
72114;SHT31;59989;46.220;19.888;2024-03-17T18:57:05;7.78;64.04
72114;SHT31;59989;46.220;19.888;2024-03-17T19:00:08;7.93;63.89
72114;SHT31;59989;46.220;19.888;2024-03-17T19:03:15;8.14;62.61
72114;SHT31;59989;46.220;19.888;2024-03-17T19:06:17;8.27;61.97
72114;SHT31;59989;46.220;19.888;2024-03-17T19:09:19;8.37;60.93
72114;SHT31;59989;46.220;19.888;2024-03-17T19:12:21;8.47;60.54